sensor_id;sensor_type;location;lat;lon;timestamp;pressure;altitude;pressure_sealevel;temperature;humidity
19845;BME280;10083;51.038;7.012;2023-05-16T10:14:13;103770.56;;;17.96;100.00
19845;BME280;10083;51.038;7.012;2023-05-16T10:17:23;103696.66;;;18.75;100.00
19845;BME280;10083;51.038;7.012;2023-05-16T10:20:22;103619.97;;;19.91;100.00
19845;BME280;10083;51.038;7.012;2023-05-16T11:23:24;102605.47;;;21.63;100.00
19845;BME280;10083;51.038;7.012;2023-05-16T11:47:39;103463.47;;;17.69;100.00
19845;BME280;10083;51.038;7.012;2023-05-16T11:53:32;102892.41;;;21.48;100.00
19845;BME280;10083;51.038;7.012;2023-05-16T11:56:01;102799.63;;;19.82;100.00
19845;BME280;10083;51.038;7.012;2023-05-16T11:58:32;102934.16;;;20.36;100.00
19845;BME280;10083;51.038;7.012;2023-05-16T12:45:52;103212.59;;;16.56;100.00
19845;BME280;10083;51.038;7.012;2023-05-16T12:48:41;103283.56;;;16.95;100.00
19845;BME280;10083;51.038;7.012;2023-05-16T12:51:11;103255.06;;;17.41;100.00
19845;BME280;10083;51.038;7.012;2023-05-16T12:53:44;103273.25;;;17.30;100.00
19845;BME280;10083;51.038;7.012;2023-05-16T14:12:12;101648.38;;;25.88;100.00
19845;BME280;10083;51.038;7.012;2023-05-16T14:15:13;101660.19;;;23.03;100.00
19845;BME280;10083;51.038;7.012;2023-05-16T14:22:08;102107.91;;;20.07;100.00
19845;BME280;10083;51.038;7.012;2023-05-16T17:56:43;103415.84;;;15.35;100.00
19845;BME280;10083;51.038;7.012;2023-05-16T17:59:22;103413.16;;;15.44;100.00
19845;BME280;10083;51.038;7.012;2023-05-16T18:01:52;103441.03;;;15.29;100.00
19845;BME280;10083;51.038;7.012;2023-05-16T19:22:25;103416.66;;;14.63;100.00
19845;BME280;10083;51.038;7.012;2023-05-16T19:24:54;103413.06;;;14.68;100.00
19845;BME280;10083;51.038;7.012;2023-05-16T19:30:56;103410.41;;;14.74;100.00
19845;BME280;10083;51.038;7.012;2023-05-16T22:24:47;103231.44;;;12.53;100.00
19845;BME280;10083;51.038;7.012;2023-05-16T22:27:28;103222.41;;;12.46;100.00
19845;BME280;10083;51.038;7.012;2023-05-16T22:30:02;103229.69;;;12.59;100.00
19845;BME280;10083;51.038;7.012;2023-05-16T22:32:57;103222.41;;;12.43;100.00
19845;BME280;10083;51.038;7.012;2023-05-16T22:35:30;103212.47;;;12.36;100.00
19845;BME280;10083;51.038;7.012;2023-05-16T22:38:29;103202.75;;;12.53;100.00
19845;BME280;10083;51.038;7.012;2023-05-16T22:41:25;103199.06;;;12.41;100.00
19845;BME280;10083;51.038;7.012;2023-05-16T22:44:20;103191.97;;;12.49;100.00
19845;BME280;10083;51.038;7.012;2023-05-16T22:46:49;103181.13;;;12.34;100.00
19845;BME280;10083;51.038;7.012;2023-05-16T22:49:29;103157.78;;;12.27;100.00
19845;BME280;10083;51.038;7.012;2023-05-16T22:52:14;103119.16;;;12.12;100.00
19845;BME280;10083;51.038;7.012;2023-05-16T22:54:52;103061.09;;;12.34;100.00
19845;BME280;10083;51.038;7.012;2023-05-16T22:57:36;103025.13;;;12.14;100.00
19845;BME280;10083;51.038;7.012;2023-05-16T23:00:19;102982.22;;;12.23;100.00
19845;BME280;10083;51.038;7.012;2023-05-16T23:02:53;102944.50;;;12.06;100.00
19845;BME280;10083;51.038;7.012;2023-05-16T23:05:36;102893.47;;;12.06;100.00
19845;BME280;10083;51.038;7.012;2023-05-16T23:08:10;102863.09;;;12.13;100.00
19845;BME280;10083;51.038;7.012;2023-05-16T23:10:49;102828.16;;;12.10;100.00
19845;BME280;10083;51.038;7.012;2023-05-16T23:13:28;102795.84;;;11.92;100.00
19845;BME280;10083;51.038;7.012;2023-05-16T23:16:07;102765.41;;;11.84;100.00
19845;BME280;10083;51.038;7.012;2023-05-16T23:18:57;102717.06;;;11.79;100.00
19845;BME280;10083;51.038;7.012;2023-05-16T23:21:39;102677.72;;;11.86;100.00
19845;BME280;10083;51.038;7.012;2023-05-16T23:24:09;102659.81;;;11.82;100.00
19845;BME280;10083;51.038;7.012;2023-05-16T23:26:43;102637.41;;;11.75;100.00
19845;BME280;10083;51.038;7.012;2023-05-16T23:29:23;102621.31;;;11.75;100.00
19845;BME280;10083;51.038;7.012;2023-05-16T23:32:16;102585.50;;;11.64;100.00
19845;BME280;10083;51.038;7.012;2023-05-16T23:34:51;102576.56;;;11.65;100.00
19845;BME280;10083;51.038;7.012;2023-05-16T23:37:34;102554.19;;;11.65;100.00
19845;BME280;10083;51.038;7.012;2023-05-16T23:40:09;102539.88;;;11.60;100.00
19845;BME280;10083;51.038;7.012;2023-05-16T23:42:46;102537.19;;;11.57;100.00
19845;BME280;10083;51.038;7.012;2023-05-16T23:45:31;102531.81;;;11.57;100.00
19845;BME280;10083;51.038;7.012;2023-05-16T23:48:13;102539.84;;;11.54;100.00
19845;BME280;10083;51.038;7.012;2023-05-16T23:50:57;102547.88;;;11.42;100.00
19845;BME280;10083;51.038;7.012;2023-05-16T23:53:44;102522.84;;;11.40;100.00
19845;BME280;10083;51.038;7.012;2023-05-16T23:56:22;102509.41;;;11.37;100.00
19845;BME280;10083;51.038;7.012;2023-05-16T23:58:57;102483.50;;;11.34;100.00
